Terminal Aerodrome Forecast
Issued by NWS Blacksburg, VA

Current Version | Previous Version | Text Only | Print | Product List | Glossary Off
Versions: 1 2 3 4 5 6 7 8 9 10 11 12 13 14 15

000
FTUS41 KRNK 172321
TAFBLF
TAF
KBLF 172321Z 1800/1824 VRB03KT P6SM SCT060
     FM181000 00000KT 4SM BR FEW010
     FM181300 00000KT P6SM FEW010 SCT050
     FM181800 28004KT P6SM BKN050=

USA.gov is the U.S. government's official web portal to all federal, state and local government web resources and services.